createdAt,value
2022-08-17T00:00:34.862Z,94807.60
2022-08-17T00:03:10.425Z,94806.80
2022-08-17T00:06:07.576Z,94804.80
2022-08-17T00:08:40.320Z,94796.60
2022-08-17T00:11:16.375Z,94798.00
2022-08-17T00:13:49.091Z,94800.00
2022-08-17T00:16:50.464Z,94797.20
2022-08-17T00:19:25.190Z,94790.00
2022-08-17T00:22:35.265Z,94789.60
2022-08-17T00:24:42.711Z,94790.00
2022-08-17T00:27:09.345Z,94789.20
2022-08-17T00:29:36.770Z,94781.00
2022-08-17T00:33:12.356Z,94784.00
2022-08-17T00:34:50.553Z,94780.60
2022-08-17T00:37:17.202Z,94780.80
2022-08-17T00:39:44.181Z,94779.80
2022-08-17T00:42:17.222Z,94780.80
2022-08-17T00:44:44.668Z,94775.60
2022-08-17T00:47:11.369Z,94776.20
2022-08-17T00:49:37.994Z,94775.20
2022-08-17T00:52:15.588Z,94772.00
2022-08-17T00:54:47.186Z,94774.80
2022-08-17T00:57:23.687Z,94772.20
2022-08-17T01:00:03.214Z,94765.60
2022-08-17T01:02:42.022Z,94763.60
2022-08-17T01:05:21.363Z,94759.40
2022-08-17T01:07:50.973Z,94757.60
2022-08-17T01:11:00.004Z,94756.20
2022-08-17T01:13:10.778Z,94760.20
2022-08-17T01:15:46.920Z,94760.40
2022-08-17T01:18:14.321Z,94757.60
2022-08-17T01:20:49.062Z,94757.60
2022-08-17T01:23:21.023Z,94752.40
2022-08-17T01:26:01.825Z,94753.40
2022-08-17T01:28:33.592Z,94757.00
2022-08-17T01:31:18.475Z,94756.20
2022-08-17T01:33:45.593Z,94756.20
2022-08-17T01:36:12.328Z,94757.20
2022-08-17T01:38:40.453Z,94759.40
2022-08-17T01:41:12.733Z,94762.80
2022-08-17T01:43:58.025Z,94763.80
2022-08-17T01:46:28.719Z,94768.40
2022-08-17T01:48:57.587Z,94770.40
2022-08-17T01:51:32.722Z,94766.80
2022-08-17T01:54:05.495Z,94764.00
2022-08-17T01:56:35.837Z,94764.00
2022-08-17T01:59:03.760Z,94761.40
2022-08-17T02:01:34.640Z,94757.80
2022-08-17T02:04:02.229Z,94753.40
2022-08-17T02:06:47.071Z,94746.80
2022-08-17T02:09:25.320Z,94742.60
2022-08-17T02:11:54.245Z,94744.00
2022-08-17T02:14:22.717Z,94745.60
2022-08-17T02:16:50.069Z,94748.20
2022-08-17T02:19:17.560Z,94753.20
2022-08-17T02:21:48.307Z,94760.20
2022-08-17T02:25:00.359Z,94760.80
2022-08-17T02:27:13.716Z,94758.60
2022-08-17T02:29:40.526Z,94757.40
2022-08-17T02:32:25.449Z,94746.80
2022-08-17T02:34:57.102Z,94743.00
2022-08-17T02:37:26.335Z,94740.00
2022-08-17T02:39:53.087Z,94738.40
2022-08-17T02:42:27.780Z,94738.20
2022-08-17T02:44:54.788Z,94735.20
2022-08-17T02:47:21.448Z,94734.80
2022-08-17T02:49:54.195Z,94734.80
2022-08-17T02:52:53.520Z,94739.40
2022-08-17T02:55:25.326Z,94737.00
2022-08-17T02:57:52.825Z,94730.80
2022-08-17T03:00:28.868Z,94728.40
2022-08-17T03:02:57.307Z,94720.00
2022-08-17T03:05:28.177Z,94720.00
2022-08-17T03:07:55.294Z,94713.60
2022-08-17T03:10:24.606Z,94709.60
2022-08-17T03:12:53.124Z,94704.20
2022-08-17T03:15:22.569Z,94706.40
2022-08-17T03:17:49.589Z,94711.20
2022-08-17T03:20:17.334Z,94712.20
2022-08-17T03:22:53.538Z,94714.20
2022-08-17T03:25:29.071Z,94710.40
2022-08-17T03:27:57.385Z,94708.20
2022-08-17T03:30:27.040Z,94705.20
2022-08-17T03:32:58.416Z,94709.40
2022-08-17T03:35:29.593Z,94710.80
2022-08-17T03:38:00.269Z,94715.40
2022-08-17T03:40:55.463Z,94717.80
2022-08-17T03:43:16.483Z,94726.80
2022-08-17T03:46:02.595Z,94728.60
2022-08-17T03:48:48.148Z,94732.40
2022-08-17T03:51:39.616Z,94733.40
2022-08-17T03:54:26.216Z,94734.20
2022-08-17T03:57:19.495Z,94733.20
2022-08-17T03:59:46.703Z,94735.80
2022-08-17T04:02:31.109Z,94737.80
2022-08-17T04:04:59.112Z,94738.20
2022-08-17T04:07:29.799Z,94740.40
2022-08-17T04:09:58.193Z,94740.60
2022-08-17T04:12:30.519Z,94740.40
2022-08-17T04:14:57.457Z,94746.00
2022-08-17T04:17:28.640Z,94747.00
2022-08-17T04:19:56.293Z,94747.00
2022-08-17T04:22:30.277Z,94746.00
2022-08-17T04:25:10.104Z,94740.20
2022-08-17T04:27:36.841Z,94735.40
2022-08-17T04:30:07.373Z,94732.00
2022-08-17T04:33:06.105Z,94724.00
2022-08-17T04:36:00.456Z,94725.40
2022-08-17T04:38:31.453Z,94727.60
2022-08-17T04:41:18.810Z,94726.80
2022-08-17T04:43:48.373Z,94726.60
2022-08-17T04:46:19.774Z,94722.20
2022-08-17T04:48:54.835Z,94725.40
2022-08-17T04:51:35.882Z,94728.80
2022-08-17T04:54:08.021Z,94729.20
2022-08-17T04:56:35.571Z,94730.80
2022-08-17T04:59:19.337Z,94732.80
2022-08-17T05:01:49.809Z,94729.40
2022-08-17T05:04:33.937Z,94724.60
2022-08-17T05:07:04.209Z,94726.40
2022-08-17T05:09:31.435Z,94725.20
2022-08-17T05:12:02.399Z,94732.80
2022-08-17T05:14:32.840Z,94734.20
2022-08-17T05:17:01.212Z,94732.00
2022-08-17T05:19:28.843Z,94730.80
2022-08-17T05:21:55.498Z,94733.00
2022-08-17T05:24:38.321Z,94733.00
2022-08-17T05:27:06.328Z,94728.60
2022-08-17T05:29:35.599Z,94733.40
2022-08-17T05:32:38.089Z,94731.80
2022-08-17T05:35:01.015Z,94734.60
2022-08-17T05:37:28.305Z,94735.40
2022-08-17T05:39:55.156Z,94736.20
2022-08-17T05:42:22.744Z,94742.00
2022-08-17T05:44:49.434Z,94745.40
2022-08-17T05:47:16.817Z,94744.20
2022-08-17T05:49:43.497Z,94748.40
2022-08-17T05:52:48.234Z,94747.00
2022-08-17T05:55:37.612Z,94740.20
2022-08-17T05:58:37.817Z,94738.60
2022-08-17T06:01:30.206Z,94736.00
2022-08-17T06:04:00.492Z,94729.00
2022-08-17T06:06:41.123Z,94722.20
2022-08-17T06:09:33.965Z,94724.00
2022-08-17T06:12:14.352Z,94724.20
2022-08-17T06:15:11.359Z,94733.40
2022-08-17T06:17:38.403Z,94728.40
2022-08-17T06:20:13.755Z,94736.40
2022-08-17T06:22:56.676Z,94739.20
2022-08-17T06:25:37.949Z,94737.80
2022-08-17T06:28:07.939Z,94739.60
2022-08-17T06:30:58.659Z,94734.60
2022-08-17T06:33:35.571Z,94740.80
2022-08-17T06:36:43.014Z,94749.20
2022-08-17T06:39:47.390Z,94752.60
2022-08-17T06:43:02.780Z,94755.00
2022-08-17T06:45:38.042Z,94753.80
2022-08-17T06:48:12.479Z,94765.20
2022-08-17T06:50:48.157Z,94760.40
2022-08-17T06:53:30.079Z,94771.60
2022-08-17T06:56:11.490Z,94768.40
2022-08-17T06:58:42.987Z,94773.80
2022-08-17T07:01:21.093Z,94771.20
2022-08-17T07:04:11.950Z,94772.40
2022-08-17T07:06:54.781Z,94777.80
2022-08-17T07:09:52.911Z,94788.80
2022-08-17T07:12:25.214Z,94804.00
2022-08-17T07:15:21.684Z,94807.20
2022-08-17T07:17:48.691Z,94812.40
2022-08-17T07:20:22.827Z,94815.40
2022-08-17T07:23:05.518Z,94816.80
2022-08-17T07:25:32.812Z,94817.20
2022-08-17T07:28:07.020Z,94817.40
2022-08-17T07:30:47.059Z,94815.40
2022-08-17T07:33:29.847Z,94810.00
2022-08-17T07:35:58.133Z,94818.20
2022-08-17T07:38:29.285Z,94823.60
2022-08-17T07:41:05.871Z,94830.20
2022-08-17T07:43:41.277Z,94832.00
2022-08-17T07:46:53.766Z,94838.60
2022-08-17T07:49:34.761Z,94841.00
2022-08-17T07:52:47.509Z,94845.20
2022-08-17T07:54:54.690Z,94843.00
2022-08-17T07:57:25.428Z,94839.80
2022-08-17T08:00:03.195Z,94839.20
2022-08-17T08:02:44.477Z,94835.80
2022-08-17T08:05:29.911Z,94835.20
2022-08-17T08:08:33.635Z,94835.20
2022-08-17T08:11:15.530Z,94836.20
2022-08-17T08:13:45.817Z,94834.60
2022-08-17T08:16:26.411Z,94839.00
2022-08-17T08:18:58.345Z,94838.20
2022-08-17T08:21:41.749Z,94834.20
2022-08-17T08:24:24.685Z,94829.20
2022-08-17T08:27:10.017Z,94831.00
2022-08-17T08:30:19.256Z,94832.80
2022-08-17T08:33:31.975Z,94828.40
2022-08-17T08:37:14.761Z,94826.00
2022-08-17T08:39:57.062Z,94821.60
2022-08-17T08:43:12.548Z,94831.00
2022-08-17T08:46:03.658Z,94828.20
2022-08-17T08:48:58.443Z,94828.00
2022-08-17T08:51:56.414Z,94829.20
2022-08-17T08:54:44.379Z,94828.80
2022-08-17T08:57:33.478Z,94823.60
2022-08-17T09:00:21.644Z,94821.80
2022-08-17T09:03:43.812Z,94816.60
2022-08-17T09:07:13.594Z,94812.20
2022-08-17T09:10:21.536Z,94816.60
2022-08-17T09:13:19.271Z,94816.60
2022-08-17T09:15:59.157Z,94825.80
2022-08-17T09:19:01.700Z,94825.20
2022-08-17T09:21:52.665Z,94834.20
2022-08-17T09:24:31.254Z,94835.00
2022-08-17T09:27:22.596Z,94830.00
2022-08-17T09:29:57.789Z,94823.80
2022-08-17T09:32:42.108Z,94817.40
2022-08-17T09:35:37.333Z,94815.00
2022-08-17T09:38:37.373Z,94820.60
2022-08-17T09:41:48.723Z,94825.00
2022-08-17T09:44:40.627Z,94820.40
2022-08-17T09:47:33.140Z,94827.60
2022-08-17T09:50:11.557Z,94833.80
2022-08-17T09:52:38.226Z,94828.40
2022-08-17T09:55:06.519Z,94825.40
2022-08-17T09:58:08.636Z,94826.60
2022-08-17T10:00:42.027Z,94825.80
2022-08-17T10:03:17.185Z,94827.20
2022-08-17T10:06:02.777Z,94830.20
2022-08-17T10:09:08.597Z,94836.60
2022-08-17T10:12:10.429Z,94843.20
2022-08-17T10:14:56.661Z,94846.80
2022-08-17T10:17:51.106Z,94844.60
2022-08-17T10:20:31.745Z,94843.40
2022-08-17T10:23:30.519Z,94850.40
2022-08-17T10:26:14.163Z,94842.00
2022-08-17T10:29:09.745Z,94837.60
2022-08-17T10:31:44.856Z,94833.80
2022-08-17T10:34:41.583Z,94824.20
2022-08-17T10:37:33.916Z,94827.00
2022-08-17T10:40:46.597Z,94829.20
2022-08-17T10:44:36.723Z,94832.40
2022-08-17T10:46:56.581Z,94831.80
2022-08-17T10:49:34.970Z,94834.60
2022-08-17T10:52:24.933Z,94836.80
2022-08-17T10:54:51.842Z,94839.20
2022-08-17T10:57:31.887Z,94836.40
2022-08-17T11:00:17.422Z,94835.80
2022-08-17T11:02:54.741Z,94829.60
2022-08-17T11:06:02.075Z,94826.00
2022-08-17T11:08:57.162Z,94829.80
2022-08-17T11:12:12.095Z,94829.80
2022-08-17T11:14:56.327Z,94831.20
2022-08-17T11:18:02.866Z,94836.00
2022-08-17T11:20:57.647Z,94836.60
2022-08-17T11:23:33.493Z,94837.20
2022-08-17T11:26:04.218Z,94841.40
2022-08-17T11:28:52.761Z,94835.60
2022-08-17T11:31:43.845Z,94827.80
2022-08-17T11:34:26.295Z,94831.40
2022-08-17T11:37:38.716Z,94826.60
2022-08-17T11:40:36.982Z,94830.40
2022-08-17T11:43:29.268Z,94825.00
